Pagrindinis puslapis
METAR-TAF:

METAR-TAF

Oro uostai :

Kantas, Vietnamas

platuma: 10-05-07N, ilguma: 105-42-43E, Aukštis: 3 m

Dabartinis oras

Ataskaita buvo paskelbta 57 minutes, ne 18:30 UTC
Vėjas 2 kt iš Rytų
Temperatūra 27°C
Drėgmė 94%
Slėgis 1010 hPa
Matomumas 10 km arba daugiau
Mažai debesys ne aukštis 1500 ft

METAR: VVCT 251830Z 09002KT 9999 FEW015 27/26 Q1010 NOSIG

Laikas: 02:27 (19:27 UTC)

Prognozė

Ataskaita buvo paskelbta 2 valandos ir 27 minutes, ne 17:00 UTC
Prognozė galioja nuo 25 metu 18 UTC su 26 metu 18 UTC
Vėjas 3 kt nuo kintamojo kryptimis
Matomumas 10 km arba daugiau
Išsisklaidę debesys ne aukštis 1500 ft
Tapsmas
nuo 26 metu 00 UTC su 26 metu 01 UTC
Vėjas 10 kt iš Šiaurės Rytų
Laikinai
nuo 26 metu 07 UTC su 26 metu 11 UTC
Išsisklaidę debesys ne aukštis 1500 ft
Mažai debesys ne aukštis 1700 ft, Liūtiniai kamuoliniai debesys.
perkūnija

TAF: VVCT 251700Z 2518/2618 VRB03KT 9999 SCT015 BECMG 2600/2601 04010KT TEMPO 2607/2611 TS SCT015 FEW017CB

Orai ataskaitas ir orų prognozės (METAR, TAF).

turimą stotys yra geltonos ir raudonos taškus žemėlapyje.

Perkelti pele per norėdami pamatyti stoties vardą.

Tada spustelėkite, norėdami matyti oro stebėjimo ir prognozės.

Norėdami pakeisti žemėlapį: spustelėkite ant žalios mygtukų su juodo kryžiaus žemyn,; žalią mygtuką su brūkšneliu, jei norite nutolinti; arba žalių rodyklių gretimoms žemėlapius.


METAR-TAF: